Time;durP1;ratioP1;P1;durP2;ratioP2;P2;SDS_P1;SDS_P2;PMS_P1;PMS_P2;Temp;Humidity;BMP_temperature;BMP_pressure;BME280_temperature;BME280_humidity;BME280_pressure;Samples;Min_cycle;Max_cycle;Signal;HPM_P1;HPM_P2
2022/05/12 00:00:55;;;;;;;;;;;21.00;99.90;;;;;;5116965;28;20027;-52
2022/05/12 00:03:20;;;;;;;;;;;21.00;99.90;;;;;;5116670;28;19908;-48
2022/05/12 00:05:46;;;;;;;;;;;21.00;99.90;;;;;;5116250;28;20043;-48
2022/05/12 00:08:12;;;;;;;;;;;21.00;99.90;;;;;;5116655;28;20296;-49
2022/05/12 00:10:38;;;;;;;;;;;21.00;99.90;;;;;;5116449;28;19914;-53
2022/05/12 00:13:04;;;;;;;;;;;21.00;99.90;;;;;;5116612;28;20266;-49
2022/05/12 00:15:31;;;;;;;;;;;21.00;99.90;;;;;;5116014;28;20370;-47
2022/05/12 00:17:58;;;;;;;;;;;21.00;99.90;;;;;;5116297;28;20346;-50
2022/05/12 00:20:24;;;;;;;;;;;21.00;99.90;;;;;;5116181;28;20358;-50
2022/05/12 00:22:50;;;;;;;;;;;21.00;99.90;;;;;;5116270;28;19914;-52
2022/05/12 00:25:20;;;;;;;;;;;21.00;99.90;;;;;;5116277;28;20301;-48
2022/05/12 00:27:45;;;;;;;;;;;21.00;99.90;;;;;;5116080;28;19911;-52
2022/05/12 00:30:12;;;;;;;;;;;21.00;99.90;;;;;;5116102;28;20006;-51
2022/05/12 00:32:39;;;;;;;;;;;21.00;99.90;;;;;;5115880;28;19920;-50
2022/05/12 00:35:06;;;;;;;;;;;21.10;99.90;;;;;;5115627;28;20358;-49
2022/05/12 00:37:32;;;;;;;;;;;21.10;99.90;;;;;;5115785;28;19907;-48
2022/05/12 00:39:57;;;;;;;;;;;21.00;99.90;;;;;;5115618;28;20006;-50
2022/05/12 00:42:23;;;;;;;;;;;21.00;99.90;;;;;;5116158;28;19915;-49
2022/05/12 00:44:48;;;;;;;;;;;21.00;99.90;;;;;;5115630;28;19908;-48
2022/05/12 00:47:14;;;;;;;;;;;21.00;99.90;;;;;;5115422;28;19914;-47
2022/05/12 00:49:40;;;;;;;;;;;21.00;99.90;;;;;;5115430;28;19908;-50
2022/05/12 00:52:09;;;;;;;;;;;21.10;99.90;;;;;;5097190;28;20270;-48
2022/05/12 00:54:53;;;;;;;;;;;21.00;99.90;;;;;;5115208;28;20294;-48
2022/05/12 00:57:37;;;;;;;;;;;21.00;99.90;;;;;;5115528;28;19933;-50
2022/05/12 01:00:05;;;;;;;;;;;21.00;99.90;;;;;;5115179;28;20496;-49
2022/05/12 01:02:31;;;;;;;;;;;21.00;99.90;;;;;;5115434;28;19985;-51
2022/05/12 01:04:58;;;;;;;;;;;21.00;99.90;;;;;;5115113;28;19998;-49
2022/05/12 01:07:23;;;;;;;;;;;21.00;99.90;;;;;;5115355;28;19908;-50
2022/05/12 01:09:49;;;;;;;;;;;21.00;99.90;;;;;;5115295;28;20361;-48
2022/05/12 01:12:14;;;;;;;;;;;21.00;99.90;;;;;;5115020;28;19952;-51
2022/05/12 01:14:40;;;;;;;;;;;21.10;99.90;;;;;;5115078;28;19923;-47
2022/05/12 01:17:06;;;;;;;;;;;21.10;99.90;;;;;;5115485;28;19918;-51
2022/05/12 01:19:34;;;;;;;;;;;21.10;99.90;;;;;;5115176;28;20364;-53
2022/05/12 01:22:00;;;;;;;;;;;21.00;99.90;;;;;;5115076;28;19908;-47
2022/05/12 01:24:33;;;;;;;;;;;21.10;99.90;;;;;;5114754;28;19912;-52
2022/05/12 01:27:18;;;;;;;;;;;21.10;99.90;;;;;;5115080;28;19911;-50
2022/05/12 01:29:51;;;;;;;;;;;21.10;99.90;;;;;;5096869;28;19908;-53
2022/05/12 01:32:17;;;;;;;;;;;21.10;99.90;;;;;;5114624;28;19927;-52
2022/05/12 01:34:42;;;;;;;;;;;21.00;99.90;;;;;;5114629;28;20273;-48
2022/05/12 01:37:08;;;;;;;;;;;21.10;99.90;;;;;;5114600;28;19918;-49
2022/05/12 01:39:35;;;;;;;;;;;21.10;99.90;;;;;;5115225;28;19914;-52
2022/05/12 01:42:02;;;;;;;;;;;21.00;99.90;;;;;;5114850;28;19907;-48
2022/05/12 01:44:27;;;;;;;;;;;21.10;99.90;;;;;;5114751;28;19915;-48
2022/05/12 01:46:53;;;;;;;;;;;21.00;99.90;;;;;;5114552;28;19907;-50
2022/05/12 01:49:18;;;;;;;;;;;21.00;99.90;;;;;;5115019;28;19960;-53
2022/05/12 01:51:44;;;;;;;;;;;21.00;99.90;;;;;;5114777;28;20408;-53
2022/05/12 01:54:10;;;;;;;;;;;21.00;99.90;;;;;;5114634;28;19915;-53
2022/05/12 01:56:35;;;;;;;;;;;21.10;99.90;;;;;;5114352;28;19911;-48
2022/05/12 01:59:01;;;;;;;;;;;21.10;99.90;;;;;;5114426;28;20350;-49
2022/05/12 02:01:26;;;;;;;;;;;21.10;99.90;;;;;;5114559;28;20351;-49
2022/05/12 02:03:52;;;;;;;;;;;21.10;99.90;;;;;;5120742;28;19915;-50
2022/05/12 02:06:17;;;;;;;;;;;21.10;99.90;;;;;;5121143;28;19908;-46
2022/05/12 02:08:43;;;;;;;;;;;21.10;99.90;;;;;;5121425;28;20374;-52
2022/05/12 02:11:08;;;;;;;;;;;21.10;99.90;;;;;;5121081;28;20055;-53
2022/05/12 02:13:34;;;;;;;;;;;21.10;99.90;;;;;;5121239;28;20006;-53
2022/05/12 02:15:59;;;;;;;;;;;21.10;99.90;;;;;;5120993;28;19908;-51
2022/05/12 02:18:25;;;;;;;;;;;21.10;99.90;;;;;;5120978;28;20290;-48
2022/05/12 02:20:51;;;;;;;;;;;21.10;99.90;;;;;;5121089;28;19907;-51
2022/05/12 02:23:17;;;;;;;;;;;21.10;99.90;;;;;;5121225;28;19914;-49
2022/05/12 02:25:42;;;;;;;;;;;21.10;99.90;;;;;;5121156;28;20015;-51
2022/05/12 02:28:08;;;;;;;;;;;21.10;99.90;;;;;;5121202;28;19908;-51
2022/05/12 02:30:34;;;;;;;;;;;21.10;99.90;;;;;;5121544;28;19950;-49
2022/05/12 02:32:59;;;;;;;;;;;21.10;99.90;;;;;;5121254;28;19972;-50
2022/05/12 02:35:25;;;;;;;;;;;21.10;99.90;;;;;;5121102;28;19919;-47
2022/05/12 02:37:51;;;;;;;;;;;21.10;99.90;;;;;;5120742;28;19908;-51
2022/05/12 02:40:17;;;;;;;;;;;21.10;99.90;;;;;;5121031;28;19915;-48
2022/05/12 02:42:43;;;;;;;;;;;21.10;99.90;;;;;;5120777;28;19960;-48
2022/05/12 02:45:09;;;;;;;;;;;21.10;99.90;;;;;;5120687;28;19908;-48
2022/05/12 02:47:34;;;;;;;;;;;21.10;99.90;;;;;;5120998;28;19929;-48
2022/05/12 02:50:00;;;;;;;;;;;21.10;99.90;;;;;;5120906;28;19911;-49
2022/05/12 02:52:26;;;;;;;;;;;21.10;99.90;;;;;;5120953;28;19911;-46
2022/05/12 02:54:51;;;;;;;;;;;21.10;99.90;;;;;;5120910;28;19923;-48
2022/05/12 02:57:17;;;;;;;;;;;21.10;99.90;;;;;;5120988;28;19908;-49
2022/05/12 02:59:42;;;;;;;;;;;21.10;99.90;;;;;;5120866;28;19990;-53
2022/05/12 03:02:09;;;;;;;;;;;21.10;99.90;;;;;;5120504;28;20285;-47
2022/05/12 03:04:34;;;;;;;;;;;21.10;99.90;;;;;;5121174;28;19908;-48
2022/05/12 03:07:00;;;;;;;;;;;21.10;99.90;;;;;;5120560;28;19908;-49
2022/05/12 03:09:25;;;;;;;;;;;21.10;99.90;;;;;;5120754;28;19912;-47
2022/05/12 03:11:51;;;;;;;;;;;21.10;99.90;;;;;;5120709;28;20020;-49
2022/05/12 03:14:16;;;;;;;;;;;21.10;99.90;;;;;;5118398;28;19916;-52
2022/05/12 03:16:42;;;;;;;;;;;21.10;99.90;;;;;;5117250;28;20294;-50
2022/05/12 03:19:08;;;;;;;;;;;21.10;99.90;;;;;;5117788;28;19991;-51
2022/05/12 03:21:34;;;;;;;;;;;21.10;99.90;;;;;;5117467;28;19912;-51
2022/05/12 03:23:59;;;;;;;;;;;21.10;99.90;;;;;;5117451;28;19908;-48
2022/05/12 03:26:25;;;;;;;;;;;21.10;99.90;;;;;;5117300;28;19911;-51
2022/05/12 03:28:51;;;;;;;;;;;21.10;99.90;;;;;;5116966;28;19915;-52
2022/05/12 03:31:16;;;;;;;;;;;21.10;99.90;;;;;;5117194;28;19961;-53
2022/05/12 03:33:42;;;;;;;;;;;21.10;99.90;;;;;;5117061;28;19972;-52
2022/05/12 03:36:08;;;;;;;;;;;21.10;99.90;;;;;;5117439;28;19919;-49
2022/05/12 03:38:33;;;;;;;;;;;21.10;99.90;;;;;;5117068;28;19915;-49
2022/05/12 03:40:59;;;;;;;;;;;21.10;99.90;;;;;;5117052;28;19915;-48
2022/05/12 03:46:09;;;;;;;;;;;21.10;99.90;;;;;;5116778;28;20441;-50
2022/05/12 03:48:35;;;;;;;;;;;21.10;99.90;;;;;;5116835;28;19947;-52
2022/05/12 03:51:01;;;;;;;;;;;21.10;99.90;;;;;;5116800;28;20272;-51
2022/05/12 03:53:27;;;;;;;;;;;21.10;99.90;;;;;;5116309;28;19908;-47
2022/05/12 03:55:53;;;;;;;;;;;21.10;99.90;;;;;;5116557;28;19912;-47
2022/05/12 03:58:18;;;;;;;;;;;21.10;99.90;;;;;;5116419;28;19995;-48
2022/05/12 04:00:44;;;;;;;;;;;21.10;99.90;;;;;;5116354;28;19908;-48
2022/05/12 04:03:09;;;;;;;;;;;21.10;99.90;;;;;;5116559;28;19915;-48
2022/05/12 04:05:35;;;;;;;;;;;21.10;99.90;;;;;;5116458;28;19969;-50
2022/05/12 04:08:00;;;;;;;;;;;21.10;99.90;;;;;;5116100;28;19908;-50
2022/05/12 04:10:26;;;;;;;;;;;21.10;99.90;;;;;;5116543;28;19954;-52
2022/05/12 04:12:52;;;;;;;;;;;21.10;99.90;;;;;;5116419;28;20051;-51
2022/05/12 04:15:19;;;;;;;;;;;21.10;99.90;;;;;;5115889;28;20057;-48
2022/05/12 04:17:45;;;;;;;;;;;21.10;99.90;;;;;;5115974;28;19928;-51
2022/05/12 04:20:12;;;;;;;;;;;21.10;99.90;;;;;;5116195;28;20270;-53
2022/05/12 04:22:40;;;;;;;;;;;21.10;99.90;;;;;;5116151;28;20006;-50
2022/05/12 04:25:06;;;;;;;;;;;21.10;99.90;;;;;;5115513;28;19916;-48
2022/05/12 04:27:34;;;;;;;;;;;21.10;99.90;;;;;;5115761;28;20362;-50
2022/05/12 04:30:00;;;;;;;;;;;21.10;99.90;;;;;;5115968;28;19914;-52
2022/05/12 04:32:26;;;;;;;;;;;21.10;99.90;;;;;;5115519;28;19920;-48
2022/05/12 04:37:35;;;;;;;;;;;21.10;99.90;;;;;;5115632;28;19914;-46
2022/05/12 04:40:05;;;;;;;;;;;21.10;99.90;;;;;;5115658;28;20325;-48
2022/05/12 04:42:31;;;;;;;;;;;21.10;99.90;;;;;;5115612;28;20381;-48
2022/05/12 04:44:56;;;;;;;;;;;21.10;99.90;;;;;;5115449;28;19908;-50
2022/05/12 04:47:22;;;;;;;;;;;21.10;99.90;;;;;;5115541;28;19908;-46
2022/05/12 04:49:47;;;;;;;;;;;21.10;99.90;;;;;;5115575;28;19908;-47
2022/05/12 04:52:13;;;;;;;;;;;21.10;99.90;;;;;;5115806;28;19915;-52
2022/05/12 04:54:38;;;;;;;;;;;21.20;99.90;;;;;;5115017;28;19916;-53
2022/05/12 04:57:04;;;;;;;;;;;21.20;99.90;;;;;;5096960;28;20020;-52
2022/05/12 04:59:31;;;;;;;;;;;21.20;99.90;;;;;;5115184;28;19915;-51
2022/05/12 05:01:57;;;;;;;;;;;21.20;99.90;;;;;;5115019;28;19912;-49
2022/05/12 05:04:23;;;;;;;;;;;21.20;99.90;;;;;;5114978;28;19914;-50
2022/05/12 05:06:48;;;;;;;;;;;21.20;99.90;;;;;;5114922;28;20354;-48
2022/05/12 05:09:14;;;;;;;;;;;21.20;99.90;;;;;;5114858;28;19953;-50
2022/05/12 05:11:39;;;;;;;;;;;21.20;99.90;;;;;;5115101;28;19914;-51
2022/05/12 05:14:05;;;;;;;;;;;21.10;99.90;;;;;;5114991;28;19966;-50
2022/05/12 05:16:31;;;;;;;;;;;21.10;99.90;;;;;;5114769;28;19994;-52
2022/05/12 05:18:57;;;;;;;;;;;21.20;99.90;;;;;;5114606;28;19908;-47
2022/05/12 05:21:22;;;;;;;;;;;21.20;99.90;;;;;;5114930;28;19908;-52
2022/05/12 05:23:48;;;;;;;;;;;21.20;99.90;;;;;;5114508;28;19916;-51
2022/05/12 05:26:13;;;;;;;;;;;21.20;99.90;;;;;;5114826;28;20370;-51
2022/05/12 05:28:39;;;;;;;;;;;21.20;99.90;;;;;;5114851;28;19950;-52
2022/05/12 05:31:05;;;;;;;;;;;21.20;99.90;;;;;;5114577;28;20006;-53
2022/05/12 05:33:31;;;;;;;;;;;21.20;99.90;;;;;;5113925;28;19928;-52
2022/05/12 05:35:57;;;;;;;;;;;21.20;99.90;;;;;;5114496;28;20415;-52
2022/05/12 05:38:23;;;;;;;;;;;21.20;99.90;;;;;;5113423;28;19947;-50
2022/05/12 05:40:48;;;;;;;;;;;21.20;99.90;;;;;;5114331;28;19947;-50
2022/05/12 05:43:14;;;;;;;;;;;21.20;99.90;;;;;;5113878;28;19908;-52
2022/05/12 05:45:40;;;;;;;;;;;21.20;99.90;;;;;;5113849;28;19908;-51
2022/05/12 05:48:06;;;;;;;;;;;21.30;99.90;;;;;;5113709;28;19911;-54
2022/05/12 05:53:23;;;;;;;;;;;21.30;99.90;;;;;;5113460;28;20391;-50
2022/05/12 05:55:49;;;;;;;;;;;21.30;99.90;;;;;;5113746;28;19911;-49
2022/05/12 05:58:15;;;;;;;;;;;21.30;99.90;;;;;;5113830;28;20007;-51
2022/05/12 06:00:43;;;;;;;;;;;21.30;99.90;;;;;;5114169;28;19939;-53
2022/05/12 06:03:09;;;;;;;;;;;21.30;99.90;;;;;;5114261;28;20010;-52
2022/05/12 06:05:35;;;;;;;;;;;21.30;99.90;;;;;;5114157;28;20308;-53
2022/05/12 06:08:01;;;;;;;;;;;21.30;99.90;;;;;;5114026;28;19912;-51
2022/05/12 06:10:27;;;;;;;;;;;21.30;99.90;;;;;;5113878;28;20405;-51
2022/05/12 06:12:53;;;;;;;;;;;21.30;99.90;;;;;;5113726;28;19908;-50
2022/05/12 06:15:18;;;;;;;;;;;21.30;99.90;;;;;;5113952;28;19919;-51
2022/05/12 06:17:44;;;;;;;;;;;21.30;99.90;;;;;;5095700;28;19912;-50
2022/05/12 06:20:10;;;;;;;;;;;21.30;99.90;;;;;;5113729;28;19956;-48
2022/05/12 06:22:36;;;;;;;;;;;21.30;99.90;;;;;;5113996;28;19912;-50
2022/05/12 06:25:07;;;;;;;;;;;21.30;99.90;;;;;;5113920;28;19914;-50
2022/05/12 06:27:33;;;;;;;;;;;21.30;99.90;;;;;;5113539;28;20455;-54
2022/05/12 06:29:58;;;;;;;;;;;21.30;99.90;;;;;;5114029;28;19947;-54
2022/05/12 06:32:26;;;;;;;;;;;21.30;99.90;;;;;;5113414;28;19920;-53
2022/05/12 06:34:52;;;;;;;;;;;21.40;99.90;;;;;;5113817;28;19912;-53
2022/05/12 06:37:19;;;;;;;;;;;21.40;99.90;;;;;;5113849;28;19943;-52
2022/05/12 06:39:44;;;;;;;;;;;21.30;99.90;;;;;;5113972;28;19935;-49
2022/05/12 06:42:10;;;;;;;;;;;21.40;99.90;;;;;;5113897;28;20381;-50
2022/05/12 06:44:35;;;;;;;;;;;21.40;99.90;;;;;;5113649;28;20048;-53
2022/05/12 06:47:02;;;;;;;;;;;21.40;99.90;;;;;;5113715;28;19908;-52
2022/05/12 06:49:28;;;;;;;;;;;21.40;99.90;;;;;;5116495;28;19908;-53
2022/05/12 06:51:55;;;;;;;;;;;21.40;99.90;;;;;;5117466;28;20020;-47
2022/05/12 06:54:22;;;;;;;;;;;21.40;99.90;;;;;;5117421;28;19915;-52
2022/05/12 06:56:48;;;;;;;;;;;21.40;99.90;;;;;;5099085;28;19934;-52
2022/05/12 06:59:13;;;;;;;;;;;21.40;99.90;;;;;;5117391;28;19908;-52
2022/05/12 07:01:39;;;;;;;;;;;21.40;99.90;;;;;;5117022;28;19953;-49
2022/05/12 07:04:05;;;;;;;;;;;21.40;99.90;;;;;;5117321;28;20261;-51
2022/05/12 07:06:30;;;;;;;;;;;21.40;99.90;;;;;;5117472;28;19947;-51
2022/05/12 07:08:56;;;;;;;;;;;21.40;99.90;;;;;;5116974;28;20430;-54
2022/05/12 07:11:22;;;;;;;;;;;21.40;99.90;;;;;;5117317;28;19908;-54
2022/05/12 07:13:48;;;;;;;;;;;21.40;99.90;;;;;;5098492;28;19961;-52
2022/05/12 07:16:13;;;;;;;;;;;21.50;99.90;;;;;;5116885;28;20412;-49
2022/05/12 07:18:39;;;;;;;;;;;21.40;99.90;;;;;;5117294;28;19908;-51
2022/05/12 07:26:39;;;;;;;;;;;21.50;99.90;;;;;;5117056;28;19966;-51
2022/05/12 07:29:09;;;;;;;;;;;21.50;99.90;;;;;;5098449;28;19908;-52
2022/05/12 07:31:35;;;;;;;;;;;21.50;99.90;;;;;;5116641;28;19968;-51
2022/05/12 07:34:00;;;;;;;;;;;21.50;99.90;;;;;;5116779;28;20305;-53
2022/05/12 07:36:27;;;;;;;;;;;21.50;99.90;;;;;;5116302;28;19954;-50
2022/05/12 07:38:55;;;;;;;;;;;21.50;99.90;;;;;;5116257;28;19915;-52
2022/05/12 07:41:21;;;;;;;;;;;21.50;99.90;;;;;;5116789;28;19907;-52
2022/05/12 07:43:47;;;;;;;;;;;21.50;99.90;;;;;;5116327;28;19919;-49
2022/05/12 07:46:13;;;;;;;;;;;21.50;99.90;;;;;;5116678;28;19957;-53
2022/05/12 07:48:39;;;;;;;;;;;21.50;99.90;;;;;;5116464;28;19908;-51
2022/05/12 07:51:05;;;;;;;;;;;21.50;99.90;;;;;;5116726;28;19915;-48
2022/05/12 07:53:31;;;;;;;;;;;21.50;99.90;;;;;;5116817;28;19908;-49
2022/05/12 07:55:57;;;;;;;;;;;21.50;99.90;;;;;;5116234;28;19914;-52
2022/05/12 07:58:23;;;;;;;;;;;21.50;99.90;;;;;;5116160;28;19915;-52
2022/05/12 08:00:48;;;;;;;;;;;21.50;99.90;;;;;;5115296;28;19915;-53
2022/05/12 08:03:14;;;;;;;;;;;21.50;99.90;;;;;;5116665;28;19907;-54
2022/05/12 08:05:39;;;;;;;;;;;21.50;99.90;;;;;;5116281;28;19999;-52
2022/05/12 08:08:06;;;;;;;;;;;21.50;99.90;;;;;;5116221;28;19908;-51
2022/05/12 08:10:32;;;;;;;;;;;21.60;99.90;;;;;;5116243;28;20360;-51
2022/05/12 08:12:57;;;;;;;;;;;21.60;99.90;;;;;;5116293;28;19908;-52
2022/05/12 08:15:25;;;;;;;;;;;21.50;99.90;;;;;;5115906;28;19922;-49
2022/05/12 08:17:54;;;;;;;;;;;21.50;99.90;;;;;;5115761;28;20341;-53
2022/05/12 08:20:20;;;;;;;;;;;21.50;99.90;;;;;;5115688;28;19908;-52
2022/05/12 08:22:45;;;;;;;;;;;21.60;99.90;;;;;;5115969;28;20398;-51
2022/05/12 08:25:11;;;;;;;;;;;21.60;99.90;;;;;;5115617;28;20006;-51
2022/05/12 08:27:37;;;;;;;;;;;21.60;99.90;;;;;;5115560;28;20001;-47
2022/05/12 08:30:04;;;;;;;;;;;21.60;99.90;;;;;;5115393;28;20369;-50
2022/05/12 08:32:29;;;;;;;;;;;21.60;99.90;;;;;;5115468;28;19942;-50
2022/05/12 08:34:55;;;;;;;;;;;21.60;99.90;;;;;;5115712;28;20401;-49
2022/05/12 08:37:21;;;;;;;;;;;21.60;99.90;;;;;;5115275;28;19908;-53
2022/05/12 08:39:47;;;;;;;;;;;21.60;99.90;;;;;;5115480;28;19908;-51
2022/05/12 08:42:18;;;;;;;;;;;21.50;99.90;;;;;;5115344;28;20343;-51
2022/05/12 08:44:44;;;;;;;;;;;21.50;99.90;;;;;;5115709;28;19914;-48
2022/05/12 08:47:11;;;;;;;;;;;21.50;99.90;;;;;;5115169;28;20262;-50
2022/05/12 08:49:44;;;;;;;;;;;21.50;99.90;;;;;;5115259;28;19964;-52
2022/05/12 08:52:10;;;;;;;;;;;21.50;99.90;;;;;;5115180;28;20023;-51
2022/05/12 08:54:38;;;;;;;;;;;21.60;99.90;;;;;;5115325;28;20413;-50
2022/05/12 08:57:05;;;;;;;;;;;21.50;99.90;;;;;;5115040;28;20273;-51
2022/05/12 08:59:32;;;;;;;;;;;21.50;99.90;;;;;;5115306;28;19908;-48
2022/05/12 09:02:16;;;;;;;;;;;21.60;99.90;;;;;;5115071;28;19908;-50
2022/05/12 09:04:52;;;;;;;;;;;21.60;99.90;;;;;;5096978;28;20350;-52
2022/05/12 09:07:20;;;;;;;;;;;21.60;99.90;;;;;;5114816;28;19946;-52
2022/05/12 09:09:51;;;;;;;;;;;21.60;99.90;;;;;;5114998;28;19908;-53
2022/05/12 09:12:20;;;;;;;;;;;21.60;99.90;;;;;;5114635;28;19915;-49
2022/05/12 09:14:56;;;;;;;;;;;21.50;99.90;;;;;;5114914;28;19915;-53
2022/05/12 09:17:23;;;;;;;;;;;21.50;99.90;;;;;;5114788;28;19912;-52
2022/05/12 09:19:49;;;;;;;;;;;21.50;99.90;;;;;;5114843;28;19915;-51
2022/05/12 09:22:22;;;;;;;;;;;21.60;99.90;;;;;;5114900;28;19908;-52
2022/05/12 09:24:48;;;;;;;;;;;21.60;99.90;;;;;;5114602;28;19960;-53
2022/05/12 09:27:14;;;;;;;;;;;21.60;99.90;;;;;;5114651;28;20281;-51
2022/05/12 09:29:46;;;;;;;;;;;21.50;99.90;;;;;;5114409;28;19908;-50
2022/05/12 09:32:11;;;;;;;;;;;21.60;99.90;;;;;;5114139;28;22208;-50
2022/05/12 09:34:42;;;;;;;;;;;21.60;99.90;;;;;;5114433;28;20022;-53
2022/05/12 09:37:16;;;;;;;;;;;21.50;99.90;;;;;;5114762;28;19991;-51
2022/05/12 09:39:45;;;;;;;;;;;21.60;99.90;;;;;;5114701;28;19908;-52
2022/05/12 09:42:28;;;;;;;;;;;21.60;99.90;;;;;;5114545;28;19907;-53
2022/05/12 09:44:59;;;;;;;;;;;21.60;99.90;;;;;;5114532;28;19912;-52
2022/05/12 09:47:25;;;;;;;;;;;21.50;99.90;;;;;;5114315;28;19907;-52
2022/05/12 09:49:51;;;;;;;;;;;21.60;99.90;;;;;;5114068;28;19915;-51
2022/05/12 09:52:24;;;;;;;;;;;21.60;99.90;;;;;;5114145;28;20270;-52
2022/05/12 09:55:07;;;;;;;;;;;21.60;99.90;;;;;;5114296;28;19915;-50
2022/05/12 09:57:35;;;;;;;;;;;21.60;99.90;;;;;;5113915;28;19977;-49
2022/05/12 10:00:03;;;;;;;;;;;21.60;99.90;;;;;;5114033;28;20374;-51
2022/05/12 10:08:18;;;;;;;;;;;21.60;99.90;;;;;;5113799;28;19915;-51
2022/05/12 10:10:45;;;;;;;;;;;21.60;99.90;;;;;;5114235;28;19927;-52
2022/05/12 10:13:31;;;;;;;;;;;21.70;99.90;;;;;;5113682;28;19914;-51
2022/05/12 10:15:58;;;;;;;;;;;21.60;99.90;;;;;;5105905;28;19922;-53
2022/05/12 10:18:30;;;;;;;;;;;21.60;99.90;;;;;;5113665;28;20308;-53
2022/05/12 10:21:01;;;;;;;;;;;21.60;99.90;;;;;;5113685;28;20012;-48
2022/05/12 10:23:27;;;;;;;;;;;21.60;99.90;;;;;;5114913;28;20308;-52
2022/05/12 10:26:04;;;;;;;;;;;21.60;99.90;;;;;;5099591;28;19914;-51
2022/05/12 10:28:48;;;;;;;;;;;21.70;99.90;;;;;;5117953;28;20002;-53
2022/05/12 10:31:33;;;;;;;;;;;21.60;99.90;;;;;;5118023;28;19908;-51
2022/05/12 10:33:59;;;;;;;;;;;21.60;99.90;;;;;;5117622;28;19965;-53
2022/05/12 10:36:43;;;;;;;;;;;21.70;99.90;;;;;;5117971;28;19908;-51
2022/05/12 10:39:09;;;;;;;;;;;21.60;99.90;;;;;;5117673;28;20416;-54
2022/05/12 10:41:38;;;;;;;;;;;21.60;99.90;;;;;;5117719;28;19912;-53
2022/05/12 10:44:06;;;;;;;;;;;21.70;99.90;;;;;;5117702;28;19908;-52
2022/05/12 10:46:52;;;;;;;;;;;21.70;99.90;;;;;;5117689;28;19915;-53
2022/05/12 10:49:23;;;;;;;;;;;21.70;99.90;;;;;;5117308;28;19915;-50
2022/05/12 10:51:48;;;;;;;;;;;21.70;99.90;;;;;;5117731;28;19908;-50
2022/05/12 10:54:27;;;;;;;;;;;21.70;99.90;;;;;;5117599;28;19960;-50
2022/05/12 10:56:53;;;;;;;;;;;21.70;99.90;;;;;;5117712;28;19911;-51
2022/05/12 10:59:24;;;;;;;;;;;21.70;99.90;;;;;;5117972;28;19907;-53
2022/05/12 11:01:52;;;;;;;;;;;21.70;99.90;;;;;;5117605;28;19915;-52
2022/05/12 11:04:28;;;;;;;;;;;21.70;99.90;;;;;;5117414;28;19946;-48
2022/05/12 11:07:20;;;;;;;;;;;21.70;99.90;;;;;;5117213;28;19907;-52
2022/05/12 11:09:47;;;;;;;;;;;21.70;99.90;;;;;;5114698;28;20000;-51
2022/05/12 11:12:17;;;;;;;;;;;21.70;99.90;;;;;;5117064;28;19911;-50
2022/05/12 11:14:48;;;;;;;;;;;21.70;99.90;;;;;;5117129;28;19916;-53
2022/05/12 11:17:27;;;;;;;;;;;21.70;99.90;;;;;;5117127;28;19907;-51
2022/05/12 11:19:59;;;;;;;;;;;21.70;99.90;;;;;;5116979;28;19908;-48
2022/05/12 11:22:34;;;;;;;;;;;21.70;99.90;;;;;;5117292;28;19919;-51
2022/05/12 11:25:08;;;;;;;;;;;21.70;99.90;;;;;;5117082;28;20002;-52
2022/05/12 11:27:37;;;;;;;;;;;21.70;99.90;;;;;;5116400;28;20312;-52
2022/05/12 11:30:21;;;;;;;;;;;21.70;99.90;;;;;;5117043;28;19908;-52
2022/05/12 11:33:02;;;;;;;;;;;21.70;99.90;;;;;;5117095;28;19924;-51
2022/05/12 11:35:48;;;;;;;;;;;21.70;99.90;;;;;;5115629;28;19923;-52
2022/05/12 11:38:32;;;;;;;;;;;21.70;99.90;;;;;;5117046;28;19953;-51
2022/05/12 11:40:58;;;;;;;;;;;21.70;99.90;;;;;;5116837;28;20282;-54
2022/05/12 11:47:05;;;;;;;;;;;21.70;99.90;;;;;;5098423;28;19915;-51
2022/05/12 11:49:31;;;;;;;;;;;21.70;99.90;;;;;;5116304;28;19914;-49
2022/05/12 11:52:03;;;;;;;;;;;21.70;99.90;;;;;;5116468;28;20403;-54
2022/05/12 11:54:34;;;;;;;;;;;21.70;99.90;;;;;;5116437;28;19916;-49
2022/05/12 11:57:00;;;;;;;;;;;21.70;99.90;;;;;;5116472;28;19907;-52
2022/05/12 11:59:26;;;;;;;;;;;21.70;99.90;;;;;;5116054;28;19956;-51
2022/05/12 12:01:54;;;;;;;;;;;21.70;99.90;;;;;;5115896;28;19908;-52
2022/05/12 12:04:38;;;;;;;;;;;21.70;99.90;;;;;;5116186;28;19908;-54
2022/05/12 12:07:04;;;;;;;;;;;21.70;99.90;;;;;;5115388;28;19912;-51
2022/05/12 12:09:33;;;;;;;;;;;21.70;99.90;;;;;;5116174;28;19969;-51
2022/05/12 12:11:59;;;;;;;;;;;21.70;99.90;;;;;;5116260;28;20053;-52
2022/05/12 12:14:43;;;;;;;;;;;21.70;99.90;;;;;;5115751;28;20014;-49
2022/05/12 12:17:14;;;;;;;;;;;21.70;99.90;;;;;;5115697;28;19935;-51
2022/05/12 12:19:46;;;;;;;;;;;21.70;99.90;;;;;;5115801;28;19908;-53
2022/05/12 12:22:26;;;;;;;;;;;21.70;99.90;;;;;;5115605;28;19908;-49
2022/05/12 12:24:59;;;;;;;;;;;21.70;99.90;;;;;;5115377;28;19908;-50
2022/05/12 12:27:30;;;;;;;;;;;21.70;99.90;;;;;;5115754;28;19914;-49
2022/05/12 12:30:15;;;;;;;;;;;21.70;99.90;;;;;;5115541;28;19914;-53
2022/05/12 12:32:41;;;;;;;;;;;21.70;99.90;;;;;;5115346;28;19924;-52
2022/05/12 12:35:22;;;;;;;;;;;21.70;99.90;;;;;;5115670;28;20343;-51
2022/05/12 12:37:50;;;;;;;;;;;21.70;99.90;;;;;;5115301;28;19908;-53
2022/05/12 12:40:31;;;;;;;;;;;21.70;99.90;;;;;;5115677;28;20039;-51
2022/05/12 12:42:57;;;;;;;;;;;21.70;99.90;;;;;;5115435;28;19965;-52
2022/05/12 12:45:23;;;;;;;;;;;21.70;99.90;;;;;;5114992;28;19912;-52
2022/05/12 12:47:56;;;;;;;;;;;21.70;99.90;;;;;;5114626;28;20047;-50
2022/05/12 12:50:41;;;;;;;;;;;21.70;99.90;;;;;;5115317;28;19947;-51
2022/05/12 12:53:10;;;;;;;;;;;21.70;99.90;;;;;;5115424;28;19919;-52
2022/05/12 12:58:42;;;;;;;;;;;21.70;99.90;;;;;;5114979;28;20023;-49
2022/05/12 13:01:19;;;;;;;;;;;21.70;99.90;;;;;;5114928;28;19918;-50
2022/05/12 13:03:47;;;;;;;;;;;21.70;99.90;;;;;;5115228;28;20296;-50
2022/05/12 13:06:16;;;;;;;;;;;21.80;99.90;;;;;;5114886;28;19912;-50
2022/05/12 13:08:41;;;;;;;;;;;21.70;99.90;;;;;;5114390;28;19908;-54
2022/05/12 13:11:07;;;;;;;;;;;21.70;99.90;;;;;;5115057;28;20060;-51
2022/05/12 13:13:46;;;;;;;;;;;21.70;99.90;;;;;;5114630;28;19912;-54
2022/05/12 13:16:14;;;;;;;;;;;21.80;99.90;;;;;;5114987;28;19908;-51
2022/05/12 13:18:45;;;;;;;;;;;21.80;99.90;;;;;;5115026;28;19908;-49
2022/05/12 13:21:16;;;;;;;;;;;21.70;99.90;;;;;;5115185;28;19950;-52
2022/05/12 13:23:41;;;;;;;;;;;21.70;99.90;;;;;;5114393;28;20346;-51
2022/05/12 13:26:07;;;;;;;;;;;21.70;99.90;;;;;;5114898;28;20002;-51
2022/05/12 13:28:37;;;;;;;;;;;21.70;99.90;;;;;;5114602;28;19908;-54
2022/05/12 13:31:21;;;;;;;;;;;21.80;99.90;;;;;;5114175;28;19907;-54
2022/05/12 13:34:20;;;;;;;;;;;21.80;99.90;;;;;;5114727;28;19972;-51
2022/05/12 13:36:47;;;;;;;;;;;21.80;99.90;;;;;;5091011;28;19916;-53
2022/05/12 13:39:33;;;;;;;;;;;21.80;99.90;;;;;;5113740;28;20317;-52
2022/05/12 13:42:02;;;;;;;;;;;21.80;99.90;;;;;;5114029;28;20405;-50
2022/05/12 13:44:29;;;;;;;;;;;21.80;99.90;;;;;;5114370;28;19907;-54
2022/05/12 13:46:59;;;;;;;;;;;21.70;99.90;;;;;;5114203;28;19908;-54
2022/05/12 13:49:28;;;;;;;;;;;21.80;99.90;;;;;;5114414;28;19914;-53
2022/05/12 13:51:54;;;;;;;;;;;21.80;99.90;;;;;;5114301;28;19986;-51
2022/05/12 13:54:36;;;;;;;;;;;21.80;99.90;;;;;;5114019;28;20018;-53
2022/05/12 13:57:20;;;;;;;;;;;21.80;99.90;;;;;;5114397;28;19998;-52
2022/05/12 13:59:55;;;;;;;;;;;21.80;99.90;;;;;;5113639;28;19912;-52
2022/05/12 14:02:34;;;;;;;;;;;21.80;99.90;;;;;;5114220;28;19908;-54
2022/05/12 14:05:01;;;;;;;;;;;21.80;99.90;;;;;;5114249;28;20258;-52
2022/05/12 14:07:27;;;;;;;;;;;21.80;99.90;;;;;;5114177;28;19946;-52
2022/05/12 14:10:09;;;;;;;;;;;21.80;99.90;;;;;;5113801;28;20366;-50
2022/05/12 14:19:13;;;;;;;;;;;21.80;99.90;;;;;;5113602;28;19931;-49
2022/05/12 14:20:55;;;;;;;;;;;21.80;99.90;;;;;;5113982;28;19915;-54
2022/05/12 14:23:20;;;;;;;;;;;21.80;99.90;;;;;;5113609;28;19907;-53
2022/05/12 14:25:46;;;;;;;;;;;21.80;99.90;;;;;;5113756;28;20265;-54
2022/05/12 14:28:11;;;;;;;;;;;21.80;99.90;;;;;;5113958;28;19915;-51
2022/05/12 14:30:37;;;;;;;;;;;21.80;99.90;;;;;;5113846;28;19999;-53
2022/05/12 14:33:02;;;;;;;;;;;21.80;99.90;;;;;;5113985;28;20034;-49
2022/05/12 14:35:28;;;;;;;;;;;21.70;99.90;;;;;;5113743;28;19911;-52
2022/05/12 14:37:54;;;;;;;;;;;21.80;99.90;;;;;;5113474;28;19918;-54
2022/05/12 14:40:21;;;;;;;;;;;21.80;99.90;;;;;;5113255;28;19908;-53
2022/05/12 14:42:48;;;;;;;;;;;21.70;99.90;;;;;;5113956;28;19919;-50
2022/05/12 14:45:14;;;;;;;;;;;21.80;99.90;;;;;;5113695;28;20362;-51
2022/05/12 14:47:41;;;;;;;;;;;21.80;99.90;;;;;;5113713;28;19911;-52
2022/05/12 14:50:08;;;;;;;;;;;21.80;99.90;;;;;;5113686;28;19962;-48
2022/05/12 14:52:34;;;;;;;;;;;21.80;99.90;;;;;;5113602;28;19908;-51
2022/05/12 14:54:59;;;;;;;;;;;21.70;99.90;;;;;;5113366;28;19935;-49